High Point, Kentucky
Current Conditions -  °F | °C
As of 9:53 AM on Monday 24 Nov 2014 (Local Time) from KPAH Reporting Station
Overcast Overcast  
Wind Chill: 38°   Ceiling: 3300
Heat Index: 46°   Visibility: 10mi
Dew Point: 35°   Wind: 21mph
Humidity: 66%   Direction: 240°WSW
Pressure: 29.74"   Gusts: NA
Location:  37.0919°N, 88.7716°W
Report Text: KPAH 241553Z 24018KT 10SM OVC033 08/02 A2974 RMK AO2 PK WND 25026/1457 SLP069 T00780017
Loading
Personal Weather Stations






























Interactive Weather Map New forecast layout! Learn more

10-Day Weather Forecast

Advertisements
Track Severe Weather on mobile